Time;durP1;ratioP1;P1;durP2;ratioP2;P2;SDS_P1;SDS_P2;PMS_P1;PMS_P2;Temp;Humidity;BMP_temperature;BMP_pressure;BME280_temperature;BME280_humidity;BME280_pressure;Samples;Min_cycle;Max_cycle;Signal;HPM_P1;HPM_P2
2021/08/25 00:02:11;;;;;;;2.50;0.20;;;;;;;;;;5092608;28;20375;-62
2021/08/25 00:04:39;;;;;;;0.83;0.20;;;;;;;;;;5092253;28;20025;-63
2021/08/25 00:07:09;;;;;;;2.13;0.70;;;;;;;;;;5093762;28;20058;-61
2021/08/25 00:09:40;;;;;;;1.07;0.53;;;;;;;;;;5099899;28;20027;-62
2021/08/25 00:12:08;;;;;;;3.33;0.50;;;;;;;;;;5079096;28;20020;-62
2021/08/25 00:14:35;;;;;;;2.03;0.30;;;;;;;;;;5070504;28;20032;-62
2021/08/25 00:17:02;;;;;;;0.67;0.40;;;;;;;;;;5075723;28;20075;-62
2021/08/25 00:19:29;;;;;;;0.43;0.20;;;;;;;;;;5098443;28;20032;-62
2021/08/25 00:21:56;;;;;;;0.30;0.27;;;;;;;;;;5096032;28;20438;-63
2021/08/25 00:24:23;;;;;;;0.20;0.20;;;;;;;;;;5112544;28;20039;-62
2021/08/25 00:26:49;;;;;;;0.50;0.30;;;;;;;;;;5106155;28;20031;-62
2021/08/25 00:29:17;;;;;;;0.40;0.20;;;;;;;;;;5104813;28;20027;-62
2021/08/25 00:31:43;;;;;;;0.60;0.30;;;;;;;;;;5092168;28;20031;-61
2021/08/25 00:34:10;;;;;;;0.70;0.40;;;;;;;;;;5086889;28;20023;-61
2021/08/25 00:36:37;;;;;;;0.70;0.30;;;;;;;;;;5086682;28;20020;-63
2021/08/25 00:39:04;;;;;;;0.40;0.30;;;;;;;;;;5086732;28;20390;-61
2021/08/25 00:41:32;;;;;;;1.03;0.33;;;;;;;;;;5086914;28;20034;-62
2021/08/25 00:43:58;;;;;;;1.97;0.43;;;;;;;;;;5091589;28;20524;-62
2021/08/25 00:46:30;;;;;;;1.63;0.30;;;;;;;;;;5091985;28;20412;-63
2021/08/25 00:48:59;;;;;;;1.80;0.40;;;;;;;;;;5107411;28;20051;-63
2021/08/25 00:51:26;;;;;;;2.47;0.77;;;;;;;;;;5100751;28;20050;-62
2021/08/25 00:53:53;;;;;;;0.37;0.17;;;;;;;;;;5112247;28;20369;-61
2021/08/25 00:56:23;;;;;;;0.77;0.20;;;;;;;;;;5101686;28;20024;-62
2021/08/25 00:58:53;;;;;;;1.43;0.40;;;;;;;;;;5086937;28;20498;-61
2021/08/25 01:01:39;;;;;;;1.03;0.30;;;;;;;;;;5099166;28;20028;-61
2021/08/25 01:04:17;;;;;;;1.75;0.30;;;;;;;;;;5106871;28;20060;-64
2021/08/25 01:06:46;;;;;;;1.67;0.60;;;;;;;;;;5102356;28;20031;-63
2021/08/25 01:09:13;;;;;;;1.63;0.50;;;;;;;;;;5112278;28;20382;-62
2021/08/25 01:11:44;;;;;;;3.83;0.60;;;;;;;;;;5099831;28;20027;-62
2021/08/25 01:14:11;;;;;;;2.27;0.80;;;;;;;;;;5093104;28;20106;-62
2021/08/25 01:16:38;;;;;;;1.60;0.50;;;;;;;;;;5092400;28;20066;-64
2021/08/25 01:19:05;;;;;;;1.77;0.60;;;;;;;;;;5099727;28;20500;-64
2021/08/25 01:21:32;;;;;;;1.17;0.30;;;;;;;;;;5106733;28;20012;-64
2021/08/25 01:23:59;;;;;;;1.13;0.47;;;;;;;;;;5106407;28;20034;-64
2021/08/25 01:26:26;;;;;;;5.10;0.50;;;;;;;;;;5106533;28;20019;-64
2021/08/25 01:28:55;;;;;;;0.63;0.40;;;;;;;;;;5111772;28;20062;-64
2021/08/25 01:31:23;;;;;;;1.83;0.30;;;;;;;;;;5095628;28;20367;-63
2021/08/25 01:33:50;;;;;;;1.23;0.50;;;;;;;;;;5095631;28;20027;-63
2021/08/25 01:36:20;;;;;;;0.90;0.33;;;;;;;;;;5095419;28;20024;-64
2021/08/25 01:38:55;;;;;;;3.17;0.50;;;;;;;;;;5095204;28;20063;-63
2021/08/25 01:41:23;;;;;;;1.20;0.40;;;;;;;;;;5091379;28;20439;-64
2021/08/25 01:43:59;;;;;;;3.33;0.90;;;;;;;;;;5089794;28;20059;-64
2021/08/25 01:46:38;;;;;;;2.30;0.60;;;;;;;;;;5089897;28;20690;-64
2021/08/25 01:49:12;;;;;;;3.23;1.03;;;;;;;;;;5102569;28;20039;-64
2021/08/25 01:51:39;;;;;;;5.43;1.10;;;;;;;;;;5115511;28;20019;-64
2021/08/25 01:54:07;;;;;;;3.27;0.90;;;;;;;;;;5115623;28;20024;-64
2021/08/25 01:56:33;;;;;;;4.27;1.00;;;;;;;;;;5115043;28;20055;-63
2021/08/25 01:59:01;;;;;;;2.03;0.90;;;;;;;;;;5115228;28;20660;-63
2021/08/25 02:01:28;;;;;;;3.30;0.80;;;;;;;;;;5113755;28;20020;-64
2021/08/25 02:03:58;;;;;;;3.27;0.90;;;;;;;;;;5091928;28;20055;-64
2021/08/25 02:06:25;;;;;;;1.57;0.90;;;;;;;;;;5108238;28;20043;-64
2021/08/25 02:08:52;;;;;;;8.27;4.63;;;;;;;;;;5110003;28;20482;-64
2021/08/25 02:11:19;;;;;;;6.17;3.47;;;;;;;;;;5109962;28;20032;-64
2021/08/25 02:13:47;;;;;;;13.97;6.87;;;;;;;;;;5098234;28;20024;-64
2021/08/25 02:16:14;;;;;;;5.80;3.07;;;;;;;;;;5094428;28;20055;-64
2021/08/25 02:18:41;;;;;;;2.60;1.30;;;;;;;;;;5094581;28;20199;-63
2021/08/25 02:21:08;;;;;;;1.30;0.80;;;;;;;;;;5094618;28;20477;-64
2021/08/25 02:23:34;;;;;;;2.50;0.60;;;;;;;;;;5093983;28;20029;-64
2021/08/25 02:26:01;;;;;;;6.33;0.70;;;;;;;;;;5089349;28;20111;-64
2021/08/25 02:28:28;;;;;;;0.93;0.40;;;;;;;;;;5090195;28;20039;-64
2021/08/25 02:30:55;;;;;;;2.00;1.00;;;;;;;;;;5109712;28;20035;-63
2021/08/25 02:33:22;;;;;;;1.50;0.40;;;;;;;;;;5093135;28;20024;-62
2021/08/25 02:35:48;;;;;;;4.40;1.17;;;;;;;;;;5094417;28;20466;-62
2021/08/25 02:38:15;;;;;;;4.27;1.63;;;;;;;;;;5094132;28;20475;-62
2021/08/25 02:40:42;;;;;;;9.20;3.43;;;;;;;;;;5094254;28;20028;-63
2021/08/25 02:43:09;;;;;;;7.13;2.00;;;;;;;;;;5093688;28;20058;-63
2021/08/25 02:45:35;;;;;;;5.87;3.43;;;;;;;;;;5094030;28;20016;-63
2021/08/25 02:48:02;;;;;;;5.17;2.47;;;;;;;;;;5088948;28;20020;-62
2021/08/25 02:50:29;;;;;;;2.87;0.90;;;;;;;;;;5088897;28;20028;-63
2021/08/25 02:52:56;;;;;;;1.17;0.60;;;;;;;;;;5109265;28;20035;-62
2021/08/25 02:55:22;;;;;;;1.97;0.70;;;;;;;;;;5107109;28;20056;-62
2021/08/25 02:57:49;;;;;;;2.53;0.73;;;;;;;;;;5113382;28;20016;-62
2021/08/25 03:00:16;;;;;;;2.63;0.60;;;;;;;;;;5114065;28;20031;-62
2021/08/25 03:02:43;;;;;;;2.57;0.70;;;;;;;;;;5094465;28;20035;-63
2021/08/25 03:05:10;;;;;;;1.37;1.00;;;;;;;;;;5093908;28;20077;-62
2021/08/25 03:07:37;;;;;;;2.90;1.20;;;;;;;;;;5094713;28;20089;-62
2021/08/25 03:10:04;;;;;;;3.33;0.80;;;;;;;;;;5090166;28;20020;-63
2021/08/25 03:12:30;;;;;;;5.90;1.20;;;;;;;;;;5088265;28;20051;-63
2021/08/25 03:14:57;;;;;;;2.97;1.10;;;;;;;;;;5088544;28;20666;-63
2021/08/25 03:17:24;;;;;;;2.40;1.00;;;;;;;;;;5088135;28;20028;-63
2021/08/25 03:19:51;;;;;;;1.33;0.80;;;;;;;;;;5092782;28;20031;-62
2021/08/25 03:22:18;;;;;;;1.23;0.70;;;;;;;;;;5093415;28;20024;-62
2021/08/25 03:24:44;;;;;;;2.50;0.60;;;;;;;;;;5093575;28;20047;-62
2021/08/25 03:27:11;;;;;;;1.30;0.57;;;;;;;;;;5093297;28;20113;-63
2021/08/25 03:29:38;;;;;;;1.83;0.70;;;;;;;;;;5093169;28;20055;-63
2021/08/25 03:32:05;;;;;;;1.37;0.60;;;;;;;;;;5094693;28;20168;-62
2021/08/25 03:34:31;;;;;;;2.23;0.50;;;;;;;;;;5107806;28;20038;-63
2021/08/25 03:36:58;;;;;;;1.60;0.57;;;;;;;;;;5108385;28;20023;-63
2021/08/25 03:39:25;;;;;;;2.47;0.90;;;;;;;;;;5108365;28;20122;-63
2021/08/25 03:41:52;;;;;;;3.17;0.60;;;;;;;;;;5110970;28;20032;-63
2021/08/25 03:44:18;;;;;;;1.70;0.93;;;;;;;;;;5096253;28;20024;-63
2021/08/25 03:46:45;;;;;;;3.10;1.37;;;;;;;;;;5093487;28;20031;-62
2021/08/25 03:49:12;;;;;;;4.20;0.80;;;;;;;;;;5092830;28;20033;-63
2021/08/25 03:51:39;;;;;;;0.70;0.47;;;;;;;;;;5092542;28;20023;-62
2021/08/25 03:54:06;;;;;;;2.23;0.40;;;;;;;;;;5092870;28;20035;-64
2021/08/25 03:56:39;;;;;;;1.33;0.37;;;;;;;;;;5108278;28;20051;-63
2021/08/25 03:59:06;;;;;;;1.03;0.40;;;;;;;;;;5108065;28;20027;-62
2021/08/25 04:01:32;;;;;;;0.50;0.30;;;;;;;;;;5107730;28;20043;-63
2021/08/25 04:04:05;;;;;;;1.27;0.60;;;;;;;;;;5110629;28;20478;-63
2021/08/25 04:06:32;;;;;;;2.27;0.80;;;;;;;;;;5111967;28;20035;-63
2021/08/25 04:08:59;;;;;;;0.90;0.47;;;;;;;;;;5112210;28;20034;-63
2021/08/25 04:11:25;;;;;;;1.93;0.40;;;;;;;;;;5110881;28;20032;-63
2021/08/25 04:13:52;;;;;;;0.83;0.50;;;;;;;;;;5112979;28;20034;-63
2021/08/25 04:16:19;;;;;;;1.70;0.53;;;;;;;;;;5108653;28;20042;-63
2021/08/25 04:18:46;;;;;;;0.50;0.30;;;;;;;;;;5088281;28;20655;-63
2021/08/25 04:21:13;;;;;;;1.97;0.40;;;;;;;;;;5087186;28;20497;-63
2021/08/25 04:23:39;;;;;;;0.37;0.10;;;;;;;;;;5086851;28;20036;-63
2021/08/25 04:26:06;;;;;;;1.27;0.30;;;;;;;;;;5089491;28;20043;-63
2021/08/25 04:28:33;;;;;;;0.27;0.27;;;;;;;;;;5093424;28;20475;-63
2021/08/25 04:30:59;;;;;;;5.03;0.30;;;;;;;;;;5092297;28;20509;-63
2021/08/25 04:33:26;;;;;;;0.80;0.40;;;;;;;;;;5104655;28;20035;-62
2021/08/25 04:35:53;;;;;;;0.47;0.40;;;;;;;;;;5093280;28;20035;-62
2021/08/25 04:38:20;;;;;;;0.43;0.20;;;;;;;;;;5096184;28;20356;-63
2021/08/25 04:40:47;;;;;;;0.30;0.20;;;;;;;;;;5107209;28;20031;-62
2021/08/25 04:43:13;;;;;;;1.10;0.30;;;;;;;;;;5107323;28;20032;-63
2021/08/25 04:45:40;;;;;;;0.67;0.30;;;;;;;;;;5107496;28;20177;-63
2021/08/25 04:48:07;;;;;;;0.37;0.20;;;;;;;;;;5074405;28;20375;-62
2021/08/25 04:50:34;;;;;;;0.87;0.40;;;;;;;;;;5092192;28;20081;-63
2021/08/25 04:53:03;;;;;;;0.40;0.20;;;;;;;;;;5092300;28;20024;-62
2021/08/25 04:55:30;;;;;;;1.83;0.50;;;;;;;;;;5091939;28;20023;-62
2021/08/25 04:57:56;;;;;;;3.77;2.30;;;;;;;;;;5091646;28;20416;-62
2021/08/25 05:00:23;;;;;;;0.70;0.27;;;;;;;;;;5090231;28;20029;-63
2021/08/25 05:02:50;;;;;;;1.37;0.40;;;;;;;;;;5087813;28;20080;-62
2021/08/25 05:05:17;;;;;;;0.97;0.40;;;;;;;;;;5087107;28;20103;-63
2021/08/25 05:07:43;;;;;;;3.30;0.40;;;;;;;;;;5090955;28;20024;-62
2021/08/25 05:10:10;;;;;;;0.97;0.30;;;;;;;;;;5093473;28;20069;-62
2021/08/25 05:12:37;;;;;;;5.10;0.50;;;;;;;;;;5116239;28;20020;-62
2021/08/25 05:15:05;;;;;;;1.33;0.60;;;;;;;;;;5115882;28;20059;-62
2021/08/25 05:17:32;;;;;;;1.37;0.47;;;;;;;;;;5105213;28;20067;-62
2021/08/25 05:20:04;;;;;;;1.07;0.30;;;;;;;;;;5101510;28;20048;-62
2021/08/25 05:22:32;;;;;;;1.50;0.33;;;;;;;;;;5114439;28;20534;-62
2021/08/25 05:24:58;;;;;;;0.50;0.40;;;;;;;;;;5111182;28;20027;-62
2021/08/25 05:27:25;;;;;;;2.37;1.47;;;;;;;;;;5110686;28;20386;-62
2021/08/25 05:29:52;;;;;;;2.87;0.60;;;;;;;;;;5110665;28;20027;-62
2021/08/25 05:32:19;;;;;;;2.77;0.30;;;;;;;;;;5110984;28;20542;-62
2021/08/25 05:34:46;;;;;;;0.57;0.30;;;;;;;;;;5106298;28;20505;-62
2021/08/25 05:37:13;;;;;;;3.20;0.20;;;;;;;;;;5111070;28;20031;-62
2021/08/25 05:39:39;;;;;;;2.60;0.73;;;;;;;;;;5115406;28;20103;-62
2021/08/25 05:42:06;;;;;;;2.13;1.60;;;;;;;;;;5115300;28;20092;-64
2021/08/25 05:44:33;;;;;;;0.67;0.40;;;;;;;;;;5114181;28;20037;-60
2021/08/25 05:47:00;;;;;;;3.00;0.60;;;;;;;;;;5108445;28;20031;-60
2021/08/25 05:49:28;;;;;;;2.27;0.40;;;;;;;;;;5109940;28;20051;-61
2021/08/25 05:51:55;;;;;;;0.40;0.20;;;;;;;;;;5110231;28;20512;-61
2021/08/25 05:54:25;;;;;;;1.20;0.30;;;;;;;;;;5110377;28;20063;-60
2021/08/25 05:56:52;;;;;;;1.80;0.80;;;;;;;;;;5115139;28;20501;-60
2021/08/25 05:59:19;;;;;;;0.87;0.30;;;;;;;;;;5098551;28;20103;-60
2021/08/25 06:01:46;;;;;;;2.50;0.50;;;;;;;;;;5094689;28;20138;-61
2021/08/25 06:04:13;;;;;;;0.50;0.30;;;;;;;;;;5094770;28;20106;-62
2021/08/25 06:06:39;;;;;;;2.70;0.40;;;;;;;;;;5094935;28;20024;-61
2021/08/25 06:09:06;;;;;;;2.30;0.77;;;;;;;;;;5089762;28;20020;-61
2021/08/25 06:11:38;;;;;;;0.93;0.30;;;;;;;;;;5089721;28;20470;-61
2021/08/25 06:14:04;;;;;;;2.17;0.43;;;;;;;;;;5089695;28;20032;-61
2021/08/25 06:16:31;;;;;;;0.83;0.37;;;;;;;;;;5089808;28;20078;-61
2021/08/25 06:18:58;;;;;;;1.03;0.50;;;;;;;;;;5096475;28;20034;-61
2021/08/25 06:21:25;;;;;;;2.67;0.43;;;;;;;;;;5110779;28;20020;-61
2021/08/25 06:23:51;;;;;;;3.47;0.37;;;;;;;;;;5094520;28;20032;-61
2021/08/25 06:26:18;;;;;;;0.60;0.30;;;;;;;;;;5094551;28;20093;-61
2021/08/25 06:28:45;;;;;;;1.40;0.33;;;;;;;;;;5094668;28;20020;-61
2021/08/25 06:31:12;;;;;;;0.80;0.20;;;;;;;;;;5089583;28;20070;-61
2021/08/25 06:33:38;;;;;;;1.27;0.33;;;;;;;;;;5089320;28;20040;-61
2021/08/25 06:36:05;;;;;;;1.53;0.20;;;;;;;;;;5089009;28;20024;-61
2021/08/25 06:38:32;;;;;;;0.80;0.40;;;;;;;;;;5088983;28;20030;-61
2021/08/25 06:40:59;;;;;;;1.13;0.40;;;;;;;;;;5094336;28;20028;-61
2021/08/25 06:43:26;;;;;;;0.70;0.20;;;;;;;;;;5094401;28;20032;-61
2021/08/25 06:45:53;;;;;;;2.20;0.30;;;;;;;;;;5104229;28;20474;-61
2021/08/25 06:48:19;;;;;;;3.17;0.60;;;;;;;;;;5114226;28;20020;-60
2021/08/25 06:50:46;;;;;;;2.57;0.40;;;;;;;;;;5098550;28;20024;-61
2021/08/25 06:53:13;;;;;;;2.80;0.40;;;;;;;;;;5089718;28;20056;-61
2021/08/25 06:55:40;;;;;;;4.77;0.50;;;;;;;;;;5088640;28;20065;-61
2021/08/25 06:58:07;;;;;;;1.17;0.40;;;;;;;;;;5089010;28;20020;-61
2021/08/25 07:00:33;;;;;;;1.07;0.33;;;;;;;;;;5088859;28;20103;-61
2021/08/25 07:03:00;;;;;;;1.87;0.40;;;;;;;;;;5092094;28;20032;-61
2021/08/25 07:05:27;;;;;;;0.47;0.30;;;;;;;;;;5093991;28;20081;-61
2021/08/25 07:07:54;;;;;;;1.87;0.30;;;;;;;;;;5093548;28;20471;-61
2021/08/25 07:10:21;;;;;;;3.27;0.63;;;;;;;;;;5110402;28;20031;-61
2021/08/25 07:12:48;;;;;;;1.83;0.50;;;;;;;;;;5076241;28;20558;-61
2021/08/25 07:15:17;;;;;;;1.17;0.40;;;;;;;;;;5090320;28;20178;-61
2021/08/25 07:17:44;;;;;;;4.00;0.37;;;;;;;;;;5088278;28;20051;-61
2021/08/25 07:20:12;;;;;;;1.03;0.30;;;;;;;;;;5094670;28;20081;-61
2021/08/25 07:22:39;;;;;;;2.13;0.50;;;;;;;;;;5108768;28;20055;-61
2021/08/25 07:25:09;;;;;;;4.90;0.77;;;;;;;;;;5110975;28;20094;-61
2021/08/25 07:27:36;;;;;;;0.63;0.23;;;;;;;;;;5113427;28;20103;-61
2021/08/25 07:30:04;;;;;;;0.23;0.13;;;;;;;;;;5112598;28;20401;-61
2021/08/25 07:32:31;;;;;;;1.17;0.20;;;;;;;;;;5108680;28;20483;-61
2021/08/25 07:34:57;;;;;;;0.93;0.30;;;;;;;;;;5093188;28;20431;-61
2021/08/25 07:37:24;;;;;;;1.37;0.20;;;;;;;;;;5090244;28;20035;-61
2021/08/25 07:39:51;;;;;;;0.20;0.10;;;;;;;;;;5087719;28;20495;-61
2021/08/25 07:42:18;;;;;;;2.93;0.37;;;;;;;;;;5087995;28;20409;-61
2021/08/25 07:44:45;;;;;;;3.70;0.67;;;;;;;;;;5107641;28;20035;-61
2021/08/25 07:47:11;;;;;;;3.00;0.20;;;;;;;;;;5109521;28;20023;-61
2021/08/25 07:49:38;;;;;;;0.33;0.13;;;;;;;;;;5112710;28;20016;-61
2021/08/25 07:52:05;;;;;;;0.57;0.10;;;;;;;;;;5113427;28;20027;-61
2021/08/25 07:54:32;;;;;;;2.00;0.27;;;;;;;;;;5113231;28;20031;-61
2021/08/25 07:56:59;;;;;;;0.30;0.20;;;;;;;;;;5101487;28;20027;-62
2021/08/25 07:59:25;;;;;;;1.17;0.10;;;;;;;;;;5099525;28;20081;-61
2021/08/25 08:01:52;;;;;;;1.60;0.47;;;;;;;;;;5108099;28;20024;-61
2021/08/25 08:04:19;;;;;;;1.30;0.20;;;;;;;;;;5107849;28;20031;-61
2021/08/25 08:06:46;;;;;;;0.37;0.10;;;;;;;;;;5105330;28;20028;-61
2021/08/25 08:09:13;;;;;;;1.30;0.00;;;;;;;;;;5068943;28;20029;-61
2021/08/25 08:11:40;;;;;;;1.70;0.20;;;;;;;;;;5075683;28;20078;-61
2021/08/25 08:14:08;;;;;;;0.10;0.10;;;;;;;;;;5110410;28;20031;-61
2021/08/25 08:16:35;;;;;;;0.57;0.20;;;;;;;;;;5112462;28;20035;-61
2021/08/25 08:19:28;;;;;;;0.63;0.20;;;;;;;;;;5112393;28;20059;-61
2021/08/25 08:21:55;;;;;;;1.83;1.30;;;;;;;;;;5069449;28;20048;-61
2021/08/25 08:24:22;;;;;;;0.47;0.27;;;;;;;;;;5066900;28;20480;-61
2021/08/25 08:26:49;;;;;;;0.97;0.20;;;;;;;;;;5072993;28;20024;-61
2021/08/25 08:29:16;;;;;;;0.23;0.20;;;;;;;;;;5107687;28;20028;-61
2021/08/25 08:31:42;;;;;;;0.40;0.10;;;;;;;;;;5109156;28;20382;-61
2021/08/25 08:34:09;;;;;;;0.80;0.20;;;;;;;;;;5112656;28;20064;-61
2021/08/25 08:36:36;;;;;;;0.10;0.03;;;;;;;;;;5112352;28;20095;-61
2021/08/25 08:39:03;;;;;;;0.50;0.30;;;;;;;;;;5104842;28;20028;-60
2021/08/25 08:41:30;;;;;;;2.00;0.30;;;;;;;;;;5091518;28;20020;-60
2021/08/25 08:43:57;;;;;;;8.23;0.50;;;;;;;;;;5097867;28;20031;-60
2021/08/25 08:46:24;;;;;;;0.20;0.13;;;;;;;;;;5106914;28;20024;-60
2021/08/25 08:48:55;;;;;;;3.77;0.40;;;;;;;;;;5106572;28;20055;-61
2021/08/25 08:51:23;;;;;;;2.53;0.30;;;;;;;;;;5067065;28;20509;-60
2021/08/25 08:53:50;;;;;;;1.90;0.20;;;;;;;;;;5068075;28;20020;-60
2021/08/25 08:56:17;;;;;;;0.63;0.20;;;;;;;;;;5073546;28;20209;-61
2021/08/25 08:58:44;;;;;;;5.53;0.50;;;;;;;;;;5092060;28;20078;-60
2021/08/25 09:01:11;;;;;;;0.20;0.10;;;;;;;;;;5091936;28;20020;-61
2021/08/25 09:03:40;;;;;;;1.53;0.40;;;;;;;;;;5110655;28;20039;-60
2021/08/25 09:06:07;;;;;;;0.77;0.20;;;;;;;;;;5110723;28;20028;-61
2021/08/25 09:08:37;;;;;;;1.73;0.17;;;;;;;;;;5090648;28;20040;-61
2021/08/25 09:11:04;;;;;;;0.60;0.20;;;;;;;;;;5086489;28;20020;-60
2021/08/25 09:13:37;;;;;;;0.83;0.40;;;;;;;;;;5086908;28;20024;-61
2021/08/25 09:16:04;;;;;;;0.47;0.27;;;;;;;;;;5087791;28;20022;-61
2021/08/25 09:18:31;;;;;;;0.97;0.30;;;;;;;;;;5091717;28;20058;-60
2021/08/25 09:20:58;;;;;;;1.73;0.30;;;;;;;;;;5091730;28;20085;-61
2021/08/25 09:23:25;;;;;;;0.63;0.20;;;;;;;;;;5091829;28;20048;-60
2021/08/25 09:25:53;;;;;;;0.70;0.10;;;;;;;;;;5091291;28;20028;-60
2021/08/25 09:28:20;;;;;;;0.70;0.63;;;;;;;;;;5089994;28;20422;-60
2021/08/25 09:30:55;;;;;;;0.13;0.10;;;;;;;;;;5090388;28;20024;-60
2021/08/25 09:33:23;;;;;;;1.42;0.22;;;;;;;;;;5097080;28;20107;-60
2021/08/25 09:35:50;;;;;;;0.43;0.20;;;;;;;;;;5106630;28;20031;-61
2021/08/25 09:38:20;;;;;;;0.73;0.13;;;;;;;;;;5107299;28;20504;-60
2021/08/25 09:40:49;;;;;;;2.03;0.17;;;;;;;;;;5111891;28;20135;-60
2021/08/25 09:43:30;;;;;;;1.03;0.63;;;;;;;;;;5095911;28;20082;-60
2021/08/25 09:46:04;;;;;;;2.63;0.40;;;;;;;;;;5095697;28;20525;-60
2021/08/25 09:48:35;;;;;;;1.13;0.27;;;;;;;;;;5096203;28;20025;-60
2021/08/25 09:51:02;;;;;;;1.70;0.67;;;;;;;;;;5088801;28;20028;-61
2021/08/25 09:53:28;;;;;;;0.40;0.20;;;;;;;;;;5105363;28;20028;-60
2021/08/25 09:55:55;;;;;;;0.90;0.37;;;;;;;;;;5102680;28;20027;-60
2021/08/25 09:58:24;;;;;;;0.70;0.23;;;;;;;;;;5090459;28;20344;-60
2021/08/25 10:00:53;;;;;;;1.37;0.30;;;;;;;;;;5091263;28;20054;-60
2021/08/25 10:03:21;;;;;;;1.03;0.30;;;;;;;;;;5104445;28;20036;-60
2021/08/25 10:05:48;;;;;;;1.30;0.30;;;;;;;;;;5106525;28;20364;-60
2021/08/25 10:08:16;;;;;;;2.33;0.67;;;;;;;;;;5095095;28;20013;-60
2021/08/25 10:10:43;;;;;;;7.53;2.00;;;;;;;;;;5094707;28;20416;-60
2021/08/25 10:13:10;;;;;;;0.77;0.30;;;;;;;;;;5093187;28;20028;-60
2021/08/25 10:15:41;;;;;;;0.47;0.30;;;;;;;;;;5089751;28;20548;-60
2021/08/25 10:18:38;;;;;;;4.60;0.97;;;;;;;;;;5089434;28;20050;-60
2021/08/25 10:21:24;;;;;;;0.87;0.40;;;;;;;;;;5107482;28;20123;-60
2021/08/25 10:23:57;;;;;;;1.27;0.50;;;;;;;;;;5112686;28;20091;-60
2021/08/25 10:26:24;;;;;;;0.50;0.20;;;;;;;;;;5100888;28;20107;-60
2021/08/25 10:29:00;;;;;;;1.53;0.43;;;;;;;;;;5096748;28;20391;-60
2021/08/25 10:31:45;;;;;;;2.37;0.47;;;;;;;;;;5114637;28;20382;-61
2021/08/25 10:34:13;;;;;;;1.27;0.30;;;;;;;;;;5075046;28;20017;-61
2021/08/25 10:36:40;;;;;;;2.37;0.30;;;;;;;;;;5110369;28;20035;-60
2021/08/25 10:39:25;;;;;;;1.47;0.40;;;;;;;;;;5109729;28;20061;-60
2021/08/25 10:41:51;;;;;;;1.73;0.40;;;;;;;;;;5109576;28;20019;-60
2021/08/25 10:44:36;;;;;;;3.93;0.50;;;;;;;;;;5109381;28;20501;-60
2021/08/25 10:47:04;;;;;;;4.93;0.40;;;;;;;;;;5113866;28;20027;-60
2021/08/25 10:49:31;;;;;;;1.10;0.30;;;;;;;;;;5114374;28;20023;-60
2021/08/25 10:52:28;;;;;;;0.23;0.20;;;;;;;;;;5112152;28;20023;-60
2021/08/25 10:54:55;;;;;;;1.53;0.47;;;;;;;;;;5073629;28;20058;-60
2021/08/25 10:57:25;;;;;;;1.23;0.30;;;;;;;;;;5081136;28;20025;-61
2021/08/25 10:59:52;;;;;;;1.43;0.43;;;;;;;;;;5088961;28;20039;-60
2021/08/25 11:02:19;;;;;;;1.53;0.60;;;;;;;;;;5088981;28;20046;-61
2021/08/25 11:04:46;;;;;;;1.07;0.40;;;;;;;;;;5088679;28;20501;-60
2021/08/25 11:07:13;;;;;;;3.37;0.60;;;;;;;;;;5088756;28;20475;-60
2021/08/25 11:09:52;;;;;;;2.87;0.53;;;;;;;;;;5093711;28;20032;-60
2021/08/25 11:12:19;;;;;;;1.47;0.50;;;;;;;;;;5100436;28;20034;-60
2021/08/25 11:14:53;;;;;;;2.07;0.60;;;;;;;;;;5113950;28;20024;-60
2021/08/25 11:17:22;;;;;;;1.03;0.20;;;;;;;;;;5101409;28;20379;-60
2021/08/25 11:19:50;;;;;;;2.93;0.47;;;;;;;;;;5093324;28;20049;-60
2021/08/25 11:22:19;;;;;;;0.40;0.30;;;;;;;;;;5088339;28;20107;-61
2021/08/25 11:24:48;;;;;;;2.93;0.33;;;;;;;;;;5104402;28;20499;-60
2021/08/25 11:27:31;;;;;;;3.20;0.63;;;;;;;;;;5108455;28;20479;-60
2021/08/25 11:30:17;;;;;;;4.37;0.60;;;;;;;;;;5109518;28;20106;-61
2021/08/25 11:32:45;;;;;;;2.20;0.50;;;;;;;;;;5113312;28;20023;-60
2021/08/25 11:35:13;;;;;;;2.67;0.70;;;;;;;;;;5113875;28;20019;-60
2021/08/25 11:37:44;;;;;;;1.70;0.50;;;;;;;;;;5113306;28;20028;-60
2021/08/25 11:40:11;;;;;;;2.40;0.60;;;;;;;;;;5093608;28;20085;-60
2021/08/25 11:42:38;;;;;;;2.97;0.60;;;;;;;;;;5090617;28;20020;-60
2021/08/25 11:45:28;;;;;;;3.33;0.70;;;;;;;;;;5087393;28;20035;-60
2021/08/25 11:47:55;;;;;;;3.70;0.60;;;;;;;;;;5099772;28;20506;-60
2021/08/25 11:50:27;;;;;;;3.03;0.80;;;;;;;;;;5107755;28;20448;-61
2021/08/25 11:52:54;;;;;;;5.17;0.57;;;;;;;;;;5109172;28;20046;-60
2021/08/25 11:55:21;;;;;;;2.17;0.50;;;;;;;;;;5113040;28;20043;-60
2021/08/25 11:57:55;;;;;;;1.80;0.60;;;;;;;;;;5112969;28;20062;-60
2021/08/25 12:00:23;;;;;;;0.87;0.70;;;;;;;;;;5113200;28;20035;-60
2021/08/25 12:02:59;;;;;;;1.30;0.70;;;;;;;;;;5111294;28;20066;-60
2021/08/25 12:05:26;;;;;;;2.60;0.90;;;;;;;;;;5110086;28;20032;-60
2021/08/25 12:08:06;;;;;;;2.73;0.80;;;;;;;;;;5106195;28;20106;-60
2021/08/25 12:10:34;;;;;;;4.37;0.90;;;;;;;;;;5107518;28;20032;-60
2021/08/25 12:13:01;;;;;;;2.40;1.43;;;;;;;;;;5091761;28;20483;-60
2021/08/25 12:15:48;;;;;;;2.27;1.07;;;;;;;;;;5089434;28;20104;-61
2021/08/25 12:18:16;;;;;;;3.90;1.30;;;;;;;;;;5106768;28;20124;-60
2021/08/25 12:20:43;;;;;;;5.47;1.33;;;;;;;;;;5100557;28;20077;-60
2021/08/25 12:23:12;;;;;;;5.90;1.77;;;;;;;;;;5109285;28;20036;-60
2021/08/25 12:25:49;;;;;;;2.50;1.10;;;;;;;;;;5112274;28;20027;-60
2021/08/25 12:28:17;;;;;;;2.07;1.20;;;;;;;;;;5108287;28;20105;-60
2021/08/25 12:30:44;;;;;;;2.67;0.97;;;;;;;;;;5107564;28;20110;-60
2021/08/25 12:33:12;;;;;;;2.30;1.00;;;;;;;;;;5107169;28;20041;-60
2021/08/25 12:35:40;;;;;;;1.30;0.87;;;;;;;;;;5105735;28;20067;-60
2021/08/25 12:38:07;;;;;;;4.57;1.20;;;;;;;;;;5093709;28;20039;-60
2021/08/25 12:40:34;;;;;;;2.17;1.27;;;;;;;;;;5092144;28;20028;-60
2021/08/25 12:43:02;;;;;;;3.37;1.03;;;;;;;;;;5091881;28;20034;-60
2021/08/25 12:45:28;;;;;;;2.47;1.10;;;;;;;;;;5092079;28;20056;-60
2021/08/25 12:47:56;;;;;;;1.30;0.90;;;;;;;;;;5092333;28;20039;-60
2021/08/25 12:50:24;;;;;;;2.57;1.40;;;;;;;;;;5092065;28;20110;-60
2021/08/25 12:52:51;;;;;;;3.40;1.63;;;;;;;;;;5092382;28;20031;-60
2021/08/25 12:55:18;;;;;;;4.00;1.57;;;;;;;;;;5086579;28;20040;-60
2021/08/25 12:57:45;;;;;;;2.40;1.30;;;;;;;;;;5086909;28;20107;-60
2021/08/25 13:00:12;;;;;;;3.13;1.37;;;;;;;;;;5089160;28;20433;-61
2021/08/25 13:02:41;;;;;;;2.67;1.37;;;;;;;;;;5092018;28;20021;-60
2021/08/25 13:05:11;;;;;;;3.07;1.40;;;;;;;;;;5091989;28;20085;-60
2021/08/25 13:07:37;;;;;;;2.60;1.13;;;;;;;;;;5091922;28;20039;-60
2021/08/25 13:10:04;;;;;;;2.10;1.10;;;;;;;;;;5107529;28;20055;-60
2021/08/25 13:12:31;;;;;;;3.70;1.20;;;;;;;;;;5100837;28;20032;-60
2021/08/25 13:14:58;;;;;;;4.80;1.50;;;;;;;;;;5086735;28;20063;-60
2021/08/25 13:17:25;;;;;;;4.37;1.50;;;;;;;;;;5086705;28;20031;-60
2021/08/25 13:19:51;;;;;;;2.43;1.27;;;;;;;;;;5086731;28;20032;-60
2021/08/25 13:22:18;;;;;;;5.07;1.60;;;;;;;;;;5096183;28;20016;-60
2021/08/25 13:24:45;;;;;;;3.17;1.77;;;;;;;;;;5111945;28;20039;-60
2021/08/25 13:27:12;;;;;;;3.73;1.80;;;;;;;;;;5111885;28;20164;-60
2021/08/25 13:29:38;;;;;;;3.10;1.70;;;;;;;;;;5116171;28;20373;-60
2021/08/25 13:32:06;;;;;;;2.77;1.60;;;;;;;;;;5114359;28;20019;-60
2021/08/25 13:34:32;;;;;;;3.17;1.90;;;;;;;;;;5093291;28;20386;-60
2021/08/25 13:36:59;;;;;;;3.87;1.97;;;;;;;;;;5090592;28;20116;-60
2021/08/25 13:39:26;;;;;;;6.83;2.10;;;;;;;;;;5090427;28;20032;-60
2021/08/25 13:41:53;;;;;;;4.47;2.17;;;;;;;;;;5093854;28;20035;-60
2021/08/25 13:44:21;;;;;;;2.87;1.90;;;;;;;;;;5112150;28;20542;-60
2021/08/25 13:46:47;;;;;;;3.70;1.90;;;;;;;;;;5112292;28;20114;-60
2021/08/25 13:49:14;;;;;;;2.97;1.80;;;;;;;;;;5094838;28;20020;-60
2021/08/25 13:51:41;;;;;;;2.37;1.50;;;;;;;;;;5097133;28;20107;-60
2021/08/25 13:54:08;;;;;;;3.20;1.60;;;;;;;;;;5115818;28;20030;-60
2021/08/25 13:56:34;;;;;;;2.37;1.50;;;;;;;;;;5113567;28;20019;-60
2021/08/25 13:59:01;;;;;;;3.47;1.87;;;;;;;;;;5096555;28;20039;-60
2021/08/25 14:01:28;;;;;;;3.03;1.80;;;;;;;;;;5074218;28;20024;-61
2021/08/25 14:03:55;;;;;;;4.20;1.60;;;;;;;;;;5089196;28;20118;-60
2021/08/25 14:06:22;;;;;;;3.80;1.70;;;;;;;;;;5090757;28;20027;-60
2021/08/25 14:08:51;;;;;;;2.90;1.57;;;;;;;;;;5095103;28;20052;-60
2021/08/25 14:11:18;;;;;;;3.47;1.87;;;;;;;;;;5095078;28;20115;-60
2021/08/25 14:13:45;;;;;;;3.27;1.50;;;;;;;;;;5094833;28;20032;-60
2021/08/25 14:16:12;;;;;;;2.13;1.20;;;;;;;;;;5094707;28;20032;-60
2021/08/25 14:18:39;;;;;;;3.00;1.53;;;;;;;;;;5093209;28;20036;-60
2021/08/25 14:21:06;;;;;;;4.40;2.10;;;;;;;;;;5088991;28;20378;-60
2021/08/25 14:23:33;;;;;;;4.20;1.60;;;;;;;;;;5089591;28;20059;-60
2021/08/25 14:26:00;;;;;;;3.67;1.67;;;;;;;;;;5090696;28;20308;-60
2021/08/25 14:28:27;;;;;;;6.80;2.13;;;;;;;;;;5090173;28;20020;-60
2021/08/25 14:30:54;;;;;;;3.37;2.10;;;;;;;;;;5096485;28;20027;-60
2021/08/25 14:33:21;;;;;;;3.63;1.80;;;;;;;;;;5114385;28;20027;-60
2021/08/25 14:35:49;;;;;;;2.90;1.73;;;;;;;;;;5102961;28;20035;-60
2021/08/25 14:38:16;;;;;;;2.93;1.60;;;;;;;;;;5093793;28;20020;-60
2021/08/25 14:40:43;;;;;;;3.00;1.80;;;;;;;;;;5092145;28;20031;-60
2021/08/25 14:43:10;;;;;;;2.63;1.23;;;;;;;;;;5089066;28;20028;-60
2021/08/25 14:45:37;;;;;;;2.80;1.10;;;;;;;;;;5089065;28;20086;-60
2021/08/25 14:48:06;;;;;;;2.80;1.50;;;;;;;;;;5089296;28;20028;-60
2021/08/25 14:50:39;;;;;;;4.03;1.60;;;;;;;;;;5089103;28;20032;-61